createdAt,value
2018-10-09T00:01:03.263Z,40.00
2018-10-09T00:03:31.104Z,37.70
2018-10-09T00:05:58.999Z,40.20
2018-10-09T00:08:26.840Z,40.23
2018-10-09T00:10:54.718Z,41.53
2018-10-09T00:13:22.602Z,45.47
2018-10-09T00:15:50.770Z,44.73
2018-10-09T00:18:18.599Z,41.37
2018-10-09T00:20:46.470Z,43.07
2018-10-09T00:23:14.340Z,43.80
2018-10-09T00:25:42.210Z,38.00
2018-10-09T00:28:10.084Z,43.77
2018-10-09T00:30:37.915Z,39.90
2018-10-09T00:33:05.842Z,40.30
2018-10-09T00:35:33.740Z,40.53
2018-10-09T00:38:01.647Z,37.00
2018-10-09T00:40:29.521Z,40.40
2018-10-09T00:42:57.379Z,38.37
2018-10-09T00:45:25.312Z,39.77
2018-10-09T00:47:53.208Z,42.00
2018-10-09T00:50:21.057Z,37.93
2018-10-09T00:52:48.953Z,37.67
2018-10-09T00:55:16.865Z,34.63
2018-10-09T00:57:44.813Z,36.97
2018-10-09T01:00:12.673Z,35.77
2018-10-09T01:02:40.570Z,37.20
2018-10-09T01:05:08.581Z,38.50
2018-10-09T01:07:36.537Z,41.33
2018-10-09T01:10:04.457Z,37.53
2018-10-09T01:12:32.936Z,36.93
2018-10-09T01:15:00.823Z,41.23
2018-10-09T01:17:29.273Z,36.53
2018-10-09T01:19:57.137Z,39.13
2018-10-09T01:22:25.062Z,45.83
2018-10-09T01:24:52.935Z,40.30
2018-10-09T01:27:20.826Z,37.20
2018-10-09T01:29:48.683Z,40.10
2018-10-09T01:32:16.822Z,40.43
2018-10-09T01:34:44.784Z,36.17
2018-10-09T01:37:12.655Z,40.10
2018-10-09T01:39:41.211Z,36.43
2018-10-09T01:42:09.360Z,33.60
2018-10-09T01:44:37.249Z,33.40
2018-10-09T01:47:05.226Z,34.60
2018-10-09T01:49:33.160Z,37.00
2018-10-09T01:52:00.988Z,30.37
2018-10-09T01:54:28.908Z,33.60
2018-10-09T01:56:57.436Z,33.53
2018-10-09T01:59:25.324Z,38.60
2018-10-09T02:01:53.189Z,34.93
2018-10-09T02:04:21.050Z,36.40
2018-10-09T02:06:49.156Z,33.07
2018-10-09T02:09:16.987Z,30.43
2018-10-09T02:11:44.832Z,35.00
2018-10-09T02:14:12.668Z,40.40
2018-10-09T02:16:40.540Z,42.00
2018-10-09T02:19:08.392Z,43.60
2018-10-09T02:21:36.234Z,34.37
2018-10-09T02:24:04.240Z,43.90
2018-10-09T02:26:32.616Z,35.77
2018-10-09T02:29:00.442Z,38.53
2018-10-09T02:31:28.292Z,37.20
2018-10-09T02:33:56.146Z,36.67
2018-10-09T02:36:24.295Z,39.00
2018-10-09T02:38:52.144Z,36.40
2018-10-09T02:41:19.988Z,33.60
2018-10-09T02:43:47.838Z,35.50
2018-10-09T02:46:15.665Z,35.67
2018-10-09T02:48:43.521Z,31.90
2018-10-09T02:51:11.381Z,35.73
2018-10-09T02:53:40.169Z,37.43
2018-10-09T02:56:08.008Z,36.90
2018-10-09T02:58:35.836Z,38.37
2018-10-09T03:01:03.664Z,35.93
2018-10-09T03:03:31.496Z,34.70
2018-10-09T03:05:59.723Z,37.13
2018-10-09T03:08:27.632Z,37.60
2018-10-09T03:10:55.507Z,32.90
2018-10-09T03:13:23.323Z,35.07
2018-10-09T03:15:51.188Z,33.83
2018-10-09T03:18:19.007Z,34.73
2018-10-09T03:20:46.913Z,36.80
2018-10-09T03:23:14.777Z,36.73
2018-10-09T03:25:42.623Z,34.70
2018-10-09T03:28:10.453Z,36.40
2018-10-09T03:30:38.278Z,40.50
2018-10-09T03:33:06.290Z,34.27
2018-10-09T03:35:34.258Z,38.80
2018-10-09T03:38:02.110Z,34.63
2018-10-09T03:40:29.936Z,36.37
2018-10-09T03:42:57.790Z,37.30
2018-10-09T03:45:25.657Z,32.40
2018-10-09T03:47:53.485Z,35.17
2018-10-09T03:50:21.303Z,35.83
2018-10-09T03:52:49.168Z,34.17
2018-10-09T03:55:16.991Z,34.43
2018-10-09T03:57:44.852Z,36.30
2018-10-09T04:00:12.693Z,31.33
2018-10-09T04:02:40.576Z,36.63
2018-10-09T04:05:08.440Z,35.67
2018-10-09T04:07:36.289Z,33.13
2018-10-09T04:10:04.719Z,36.27
2018-10-09T04:12:32.582Z,34.87
2018-10-09T04:15:00.707Z,32.77
2018-10-09T04:17:28.634Z,35.60
2018-10-09T04:19:57.172Z,35.23
2018-10-09T04:22:25.077Z,34.07
2018-10-09T04:24:53.307Z,34.17
2018-10-09T04:27:21.149Z,33.17
2018-10-09T04:29:49.031Z,36.00
2018-10-09T04:32:16.911Z,33.57
2018-10-09T04:34:44.737Z,33.40
2018-10-09T04:37:12.574Z,32.60
2018-10-09T04:39:40.386Z,30.53
2018-10-09T04:42:08.292Z,35.00
2018-10-09T04:44:36.334Z,37.90
2018-10-09T04:47:04.504Z,39.40
2018-10-09T04:49:32.343Z,38.33
2018-10-09T04:52:00.473Z,36.10
2018-10-09T04:54:28.725Z,33.97
2018-10-09T04:56:56.917Z,33.23
2018-10-09T04:59:24.764Z,33.60
2018-10-09T05:01:53.476Z,32.70
2018-10-09T05:04:21.309Z,39.73
2018-10-09T05:06:49.451Z,31.90
2018-10-09T05:09:18.438Z,36.20
2018-10-09T05:11:46.299Z,29.47
2018-10-09T05:14:14.137Z,33.57
2018-10-09T05:16:42.042Z,33.03
2018-10-09T05:19:09.901Z,30.60
2018-10-09T05:21:37.759Z,27.87
2018-10-09T05:24:05.734Z,30.10
2018-10-09T05:26:33.597Z,31.80
2018-10-09T05:29:01.496Z,30.40
2018-10-09T05:31:29.353Z,30.43
2018-10-09T05:33:57.244Z,34.70
2018-10-09T05:36:26.043Z,29.23
2018-10-09T05:38:53.946Z,29.00
2018-10-09T05:41:21.800Z,28.43
2018-10-09T05:43:49.953Z,30.80
2018-10-09T05:46:17.787Z,25.33
2018-10-09T05:48:45.611Z,27.37
2018-10-09T05:51:13.496Z,26.43
2018-10-09T05:53:41.730Z,30.87
2018-10-09T05:56:09.993Z,26.77
2018-10-09T05:58:37.821Z,26.93
2018-10-09T06:01:05.741Z,24.87
2018-10-09T06:03:33.603Z,29.20
2018-10-09T06:06:01.579Z,28.93
2018-10-09T06:08:29.379Z,30.17
2018-10-09T06:10:57.264Z,26.97
2018-10-09T06:13:25.158Z,27.37
2018-10-09T06:15:53.001Z,27.60
2018-10-09T06:18:21.033Z,27.07
2018-10-09T06:20:49.172Z,27.13
2018-10-09T06:23:17.338Z,26.00
2018-10-09T06:25:45.520Z,26.37
2018-10-09T06:28:13.372Z,26.20
2018-10-09T06:30:41.568Z,27.93
2018-10-09T06:33:09.388Z,28.37
2018-10-09T06:35:37.613Z,27.67
2018-10-09T06:38:06.157Z,27.77
2018-10-09T06:40:34.075Z,27.73
2018-10-09T06:43:02.472Z,24.97
2018-10-09T06:45:30.349Z,22.80
2018-10-09T06:47:58.298Z,22.20
2018-10-09T06:50:26.189Z,23.63
2018-10-09T06:52:54.299Z,27.13
2018-10-09T06:55:22.159Z,26.53
2018-10-09T06:57:50.344Z,25.87
2018-10-09T07:00:18.553Z,22.60
2018-10-09T07:02:46.491Z,23.37
2018-10-09T07:05:14.377Z,25.90
2018-10-09T07:07:42.632Z,24.13
2018-10-09T07:10:10.487Z,25.83
2018-10-09T07:12:38.458Z,28.53
2018-10-09T07:15:06.712Z,26.50
2018-10-09T07:17:34.619Z,27.47
2018-10-09T07:20:02.734Z,25.80
2018-10-09T07:22:30.637Z,24.70
2018-10-09T07:24:59.108Z,29.33
2018-10-09T07:27:27.021Z,28.77
2018-10-09T07:29:55.157Z,28.77
2018-10-09T07:32:23.007Z,26.13
2018-10-09T07:34:50.858Z,30.87
2018-10-09T07:37:18.713Z,31.20
2018-10-09T07:39:46.560Z,30.33
2018-10-09T07:42:14.404Z,30.20
2018-10-09T07:44:43.204Z,29.20
2018-10-09T07:47:11.188Z,29.57
2018-10-09T07:49:39.124Z,30.47
2018-10-09T07:52:07.131Z,30.57
2018-10-09T07:54:35.282Z,29.20
2018-10-09T07:57:03.239Z,29.80
2018-10-09T07:59:31.085Z,31.60
2018-10-09T08:01:59.749Z,33.23
2018-10-09T08:04:27.650Z,29.30
2018-10-09T08:06:55.602Z,33.57
2018-10-09T08:09:23.484Z,31.70
2018-10-09T08:11:51.370Z,32.20
2018-10-09T08:14:19.234Z,31.33
2018-10-09T08:16:47.076Z,30.00
2018-10-09T08:19:15.273Z,30.13
2018-10-09T08:21:43.194Z,36.77
2018-10-09T08:24:11.067Z,31.67
2018-10-09T08:26:38.942Z,32.80
2018-10-09T08:29:06.844Z,34.47
2018-10-09T08:31:34.709Z,33.30
2018-10-09T08:34:02.606Z,34.00
2018-10-09T08:36:30.464Z,32.90
2018-10-09T08:38:58.616Z,34.50
2018-10-09T08:41:26.554Z,36.50
2018-10-09T08:43:54.441Z,33.17
2018-10-09T08:46:22.673Z,34.20
2018-10-09T08:48:50.709Z,35.37
2018-10-09T08:51:18.588Z,37.70
2018-10-09T08:53:46.462Z,36.07
2018-10-09T08:56:14.329Z,39.60
2018-10-09T08:58:42.190Z,36.23
2018-10-09T09:01:10.340Z,37.57
2018-10-09T09:03:38.313Z,38.87
2018-10-09T09:06:06.520Z,41.03
2018-10-09T09:08:34.501Z,38.50
2018-10-09T09:11:02.345Z,41.00
2018-10-09T09:13:30.223Z,43.50
2018-10-09T09:15:58.115Z,42.80
2018-10-09T09:18:26.007Z,39.23
2018-10-09T09:20:53.931Z,40.07
2018-10-09T09:23:21.728Z,43.13
2018-10-09T09:25:49.610Z,39.37
2018-10-09T09:28:17.703Z,38.97
2018-10-09T09:30:45.542Z,39.43
2018-10-09T09:33:13.820Z,37.50
2018-10-09T09:35:41.600Z,38.73
2018-10-09T09:38:09.437Z,35.97
2018-10-09T09:40:37.374Z,38.17
2018-10-09T09:43:05.547Z,36.63
2018-10-09T09:45:33.413Z,37.30
2018-10-09T09:48:01.232Z,34.77
2018-10-09T09:50:29.063Z,32.60
2018-10-09T09:52:56.925Z,31.77
2018-10-09T09:55:25.951Z,33.40
2018-10-09T09:57:54.256Z,31.60
2018-10-09T10:00:27.580Z,30.93
2018-10-09T10:02:55.669Z,30.67
2018-10-09T10:05:23.480Z,32.03
2018-10-09T10:07:51.460Z,32.20
2018-10-09T10:10:19.458Z,30.40
2018-10-09T10:12:48.230Z,32.30
2018-10-09T10:15:16.345Z,30.53
2018-10-09T10:17:44.221Z,30.67
2018-10-09T10:20:12.411Z,30.97
2018-10-09T10:22:40.492Z,29.50
2018-10-09T10:25:08.453Z,31.60
2018-10-09T10:27:36.378Z,31.97
2018-10-09T10:30:04.651Z,30.60
2018-10-09T10:32:32.501Z,28.67
2018-10-09T10:35:00.366Z,32.73
2018-10-09T10:37:28.224Z,28.67
2018-10-09T10:39:56.129Z,27.07
2018-10-09T10:42:24.004Z,28.13
2018-10-09T10:44:51.836Z,27.80
2018-10-09T10:47:19.722Z,30.53
2018-10-09T10:49:47.569Z,28.77
2018-10-09T10:52:15.814Z,28.20
2018-10-09T10:54:43.685Z,31.60
2018-10-09T10:57:11.575Z,29.80
2018-10-09T10:59:39.414Z,29.90
2018-10-09T11:02:07.617Z,29.50
2018-10-09T11:04:35.483Z,32.43
2018-10-09T11:07:03.641Z,29.90
2018-10-09T11:09:31.516Z,29.90
2018-10-09T11:11:59.389Z,30.97
2018-10-09T11:14:27.254Z,28.97
2018-10-09T11:16:55.157Z,26.97
2018-10-09T11:19:22.986Z,26.73
2018-10-09T11:21:51.137Z,25.03
2018-10-09T11:24:18.979Z,26.07
2018-10-09T11:26:46.837Z,25.33
2018-10-09T11:29:14.952Z,26.67
2018-10-09T11:31:42.860Z,24.40
2018-10-09T11:34:10.716Z,24.63
2018-10-09T11:36:38.988Z,22.77
2018-10-09T11:39:07.528Z,22.47
2018-10-09T11:41:35.430Z,25.10
2018-10-09T11:44:03.330Z,24.40
2018-10-09T11:46:31.300Z,22.27
2018-10-09T11:48:59.165Z,24.47
2018-10-09T11:51:27.056Z,24.47
2018-10-09T11:53:54.893Z,23.63
2018-10-09T11:56:23.035Z,27.33
2018-10-09T11:58:50.928Z,26.70
2018-10-09T12:01:18.894Z,24.20
2018-10-09T12:03:46.746Z,24.63
2018-10-09T12:06:14.617Z,22.77
2018-10-09T12:08:42.726Z,22.30
2018-10-09T12:11:10.588Z,19.07
2018-10-09T12:13:38.410Z,20.67
2018-10-09T12:16:06.708Z,22.40
2018-10-09T12:18:34.568Z,21.90
2018-10-09T12:21:02.419Z,20.17
2018-10-09T12:23:30.519Z,24.60
2018-10-09T12:25:58.859Z,22.37
2018-10-09T12:28:26.725Z,22.20
2018-10-09T12:30:54.623Z,21.07
2018-10-09T12:33:22.876Z,19.60
2018-10-09T12:35:50.716Z,20.60
2018-10-09T12:38:18.664Z,18.40
2018-10-09T12:40:46.660Z,19.30
2018-10-09T12:43:14.521Z,20.30
2018-10-09T12:45:42.718Z,19.70
2018-10-09T12:48:10.570Z,19.77
2018-10-09T12:50:38.452Z,20.50
2018-10-09T12:53:06.410Z,19.43
2018-10-09T12:55:34.251Z,19.70
2018-10-09T12:58:02.070Z,22.70
2018-10-09T13:00:29.952Z,20.10
2018-10-09T13:02:57.852Z,16.87
2018-10-09T13:05:26.802Z,17.37
2018-10-09T13:07:54.661Z,14.93
2018-10-09T13:10:22.873Z,17.13
2018-10-09T13:12:50.993Z,16.20
2018-10-09T13:15:18.858Z,15.40
2018-10-09T13:17:47.566Z,15.53
2018-10-09T13:20:15.617Z,17.97
2018-10-09T13:22:43.791Z,17.40
2018-10-09T13:25:11.571Z,17.47
2018-10-09T13:27:39.498Z,15.53
2018-10-09T13:30:07.778Z,15.00
2018-10-09T13:32:35.641Z,16.40
2018-10-09T13:35:03.589Z,16.47
2018-10-09T13:37:31.533Z,18.00
2018-10-09T13:39:59.426Z,19.27
2018-10-09T13:42:27.288Z,20.70
2018-10-09T13:44:55.154Z,17.73
2018-10-09T13:47:23.129Z,18.27
2018-10-09T13:49:50.962Z,18.40
2018-10-09T13:52:18.877Z,19.57
2018-10-09T13:54:46.766Z,19.33
2018-10-09T13:57:15.114Z,19.80
2018-10-09T13:59:42.949Z,19.10
2018-10-09T14:02:10.941Z,20.10
2018-10-09T14:04:38.855Z,22.17
2018-10-09T14:07:07.423Z,20.40
2018-10-09T14:09:36.047Z,21.43
2018-10-09T14:12:04.757Z,18.50
2018-10-09T14:14:33.843Z,20.80
2018-10-09T14:17:03.244Z,20.93
2018-10-09T14:19:31.516Z,21.90
2018-10-09T14:21:59.757Z,20.13
2018-10-09T14:24:27.676Z,22.30
2018-10-09T14:26:55.606Z,23.80
2018-10-09T14:29:23.771Z,20.13
2018-10-09T14:31:51.610Z,20.90
2018-10-09T14:34:19.700Z,22.90
2018-10-09T14:36:47.530Z,23.77
2018-10-09T14:39:15.350Z,22.80
2018-10-09T14:41:43.172Z,22.97
2018-10-09T14:44:11.142Z,25.10
2018-10-09T14:46:38.935Z,22.97
2018-10-09T14:49:06.828Z,25.57
2018-10-09T14:51:34.668Z,22.67
2018-10-09T14:54:02.601Z,26.23
2018-10-09T14:56:30.705Z,24.37
2018-10-09T14:58:58.820Z,24.83
2018-10-09T15:01:26.660Z,24.20
2018-10-09T15:03:55.229Z,24.47
2018-10-09T15:06:23.096Z,23.90
2018-10-09T15:08:50.973Z,24.63
2018-10-09T15:11:18.826Z,23.53
2018-10-09T15:13:46.680Z,21.20
2018-10-09T15:16:14.560Z,24.73
2018-10-09T15:18:42.489Z,22.40
2018-10-09T15:21:10.731Z,23.60
2018-10-09T15:23:38.600Z,24.30
2018-10-09T15:26:07.310Z,25.77
2018-10-09T15:28:35.175Z,24.40
2018-10-09T15:31:03.074Z,23.80
2018-10-09T15:33:30.923Z,25.63
2018-10-09T15:35:58.803Z,23.53
2018-10-09T15:38:27.748Z,23.73
2018-10-09T15:40:55.739Z,26.37
2018-10-09T15:43:23.601Z,24.47
2018-10-09T15:46:54.783Z,24.90
2018-10-09T15:49:23.112Z,26.20
2018-10-09T15:51:50.928Z,28.53
2018-10-09T15:54:18.790Z,30.23
2018-10-09T15:56:46.896Z,30.77
2018-10-09T15:59:15.569Z,28.70
2018-10-09T16:01:43.416Z,31.47
2018-10-09T16:04:11.602Z,29.60
2018-10-09T16:06:39.596Z,31.07
2018-10-09T16:09:08.709Z,30.87
2018-10-09T16:11:36.602Z,30.70
2018-10-09T16:14:04.516Z,27.50
2018-10-09T16:16:32.335Z,27.53
2018-10-09T16:19:00.176Z,27.53
2018-10-09T16:21:27.987Z,26.93
2018-10-09T16:23:55.873Z,25.67
2018-10-09T16:26:23.728Z,30.60
2018-10-09T16:28:52.220Z,28.50
2018-10-09T16:31:20.094Z,28.67
2018-10-09T16:33:47.942Z,30.43
2018-10-09T16:36:15.809Z,30.60
2018-10-09T16:38:43.640Z,31.63
2018-10-09T16:41:11.905Z,31.17
2018-10-09T16:43:39.764Z,29.30
2018-10-09T16:46:07.947Z,30.93
2018-10-09T16:48:36.007Z,28.07
2018-10-09T16:51:03.897Z,32.57
2018-10-09T16:53:31.840Z,31.57
2018-10-09T16:56:00.080Z,31.10
2018-10-09T16:58:27.969Z,32.37
2018-10-09T17:00:55.822Z,30.83
2018-10-09T17:03:23.694Z,29.20
2018-10-09T17:05:51.604Z,31.40
2018-10-09T17:08:19.746Z,32.17
2018-10-09T17:10:47.955Z,29.73
2018-10-09T17:13:15.801Z,32.10
2018-10-09T17:15:43.761Z,32.57
2018-10-09T17:18:11.643Z,32.47
2018-10-09T17:20:39.737Z,33.70
2018-10-09T17:23:07.621Z,33.03
2018-10-09T17:25:35.507Z,31.30
2018-10-09T17:28:03.629Z,30.17
2018-10-09T17:30:31.757Z,32.23
2018-10-09T17:32:59.683Z,31.80
2018-10-09T17:35:27.611Z,31.70
2018-10-09T17:37:55.537Z,30.80
2018-10-09T17:40:23.648Z,33.07
2018-10-09T17:42:51.507Z,67.23
2018-10-09T17:45:19.369Z,43.80
2018-10-09T17:47:48.311Z,32.30
2018-10-09T17:50:18.237Z,34.07
2018-10-09T17:52:46.168Z,32.50
2018-10-09T17:55:14.064Z,34.00
2018-10-09T17:57:42.968Z,30.57
2018-10-09T18:00:10.816Z,32.67
2018-10-09T18:02:38.984Z,31.50
2018-10-09T18:05:06.908Z,31.57
2018-10-09T18:07:34.921Z,32.73
2018-10-09T18:10:02.875Z,31.00
2018-10-09T18:12:31.072Z,32.10
2018-10-09T18:14:59.001Z,33.27
2018-10-09T18:17:27.652Z,41.67
2018-10-09T18:19:55.686Z,37.27
2018-10-09T18:22:23.731Z,34.17
2018-10-09T18:24:52.440Z,34.03
2018-10-09T18:27:20.318Z,32.90
2018-10-09T18:29:48.216Z,34.30
2018-10-09T18:32:16.472Z,34.83
2018-10-09T18:34:44.565Z,35.90
2018-10-09T18:37:12.443Z,33.63
2018-10-09T18:39:40.336Z,38.10
2018-10-09T18:42:08.190Z,35.20
2018-10-09T18:44:36.611Z,35.90
2018-10-09T18:47:09.051Z,34.53
2018-10-09T18:49:36.926Z,34.53
2018-10-09T18:52:04.866Z,36.70
2018-10-09T18:54:32.785Z,35.20
2018-10-09T18:57:00.691Z,36.80
2018-10-09T18:59:28.557Z,37.17
2018-10-09T19:01:56.467Z,39.90
2018-10-09T19:04:24.982Z,38.57
2018-10-09T19:06:53.153Z,37.73
2018-10-09T19:09:22.258Z,37.70
2018-10-09T19:11:50.470Z,39.20
2018-10-09T19:14:18.708Z,36.20
2018-10-09T19:16:46.631Z,39.77
2018-10-09T19:19:14.646Z,40.13
2018-10-09T19:21:44.002Z,38.60
2018-10-09T19:24:11.967Z,39.93
2018-10-09T19:26:39.843Z,40.80
2018-10-09T19:29:07.769Z,40.63
2018-10-09T19:31:36.121Z,42.63
2018-10-09T19:34:04.815Z,38.07
2018-10-09T19:36:32.975Z,41.90
2018-10-09T19:39:01.238Z,39.00
2018-10-09T19:41:29.158Z,42.17
2018-10-09T19:43:57.050Z,38.80
2018-10-09T19:46:25.524Z,39.20
2018-10-09T19:48:53.411Z,39.27
2018-10-09T19:51:21.390Z,39.67
2018-10-09T19:53:49.819Z,39.20
2018-10-09T19:56:17.721Z,41.97
2018-10-09T19:58:45.609Z,41.40
2018-10-09T20:01:13.625Z,40.90
2018-10-09T20:03:44.747Z,37.40
2018-10-09T20:06:12.800Z,40.90
2018-10-09T20:08:40.993Z,38.30
2018-10-09T20:11:08.905Z,42.17
2018-10-09T20:13:37.190Z,40.40
2018-10-09T20:16:05.711Z,42.27
2018-10-09T20:18:33.894Z,44.47
2018-10-09T20:21:01.759Z,49.30
2018-10-09T20:23:30.184Z,47.03
2018-10-09T20:25:58.184Z,48.47
2018-10-09T20:28:26.093Z,48.67
2018-10-09T20:30:54.605Z,45.67
2018-10-09T20:33:22.516Z,43.90
2018-10-09T20:35:51.133Z,43.93
2018-10-09T20:38:19.286Z,45.03
2018-10-09T20:40:47.660Z,43.87
2018-10-09T20:43:15.474Z,44.90
2018-10-09T20:45:43.368Z,47.10
2018-10-09T20:48:11.211Z,41.70
2018-10-09T20:50:39.138Z,43.40
2018-10-09T20:53:07.296Z,40.37
2018-10-09T20:55:35.120Z,43.73
2018-10-09T20:58:02.957Z,45.77
2018-10-09T21:00:30.803Z,42.13
2018-10-09T21:02:58.663Z,43.63
2018-10-09T21:05:26.530Z,38.90
2018-10-09T21:07:54.929Z,38.27
2018-10-09T21:10:22.844Z,39.80
2018-10-09T21:12:50.770Z,39.13
2018-10-09T21:15:18.648Z,42.80
2018-10-09T21:17:46.692Z,43.87
2018-10-09T21:20:14.399Z,43.07
2018-10-09T21:22:42.323Z,46.70
2018-10-09T21:25:10.137Z,42.27
2018-10-09T21:27:38.386Z,41.00
2018-10-09T21:30:06.342Z,44.60
2018-10-09T21:32:34.193Z,43.17
2018-10-09T21:35:02.034Z,39.73
2018-10-09T21:37:30.129Z,42.30
2018-10-09T21:39:58.761Z,40.80
2018-10-09T21:42:26.680Z,44.50
2018-10-09T21:44:54.509Z,42.57
2018-10-09T21:47:22.356Z,43.73
2018-10-09T21:49:50.956Z,42.40
2018-10-09T21:52:18.867Z,44.83
2018-10-09T21:54:46.749Z,43.40
2018-10-09T21:57:15.011Z,44.93
2018-10-09T21:59:42.868Z,40.80
2018-10-09T22:02:11.713Z,40.87
2018-10-09T22:04:39.508Z,40.30
2018-10-09T22:07:07.452Z,40.47
2018-10-09T22:09:35.288Z,41.83
2018-10-09T22:12:03.260Z,40.97
2018-10-09T22:14:31.116Z,40.67
2018-10-09T22:16:59.889Z,41.03
2018-10-09T22:19:27.816Z,40.90
2018-10-09T22:21:55.680Z,44.47
2018-10-09T22:24:23.592Z,40.97
2018-10-09T22:26:51.423Z,45.43
2018-10-09T22:29:19.249Z,51.30
2018-10-09T22:31:47.103Z,50.40
2018-10-09T22:34:14.955Z,48.00
2018-10-09T22:36:42.844Z,50.03
2018-10-09T22:39:10.894Z,48.13
2018-10-09T22:41:39.185Z,45.87
2018-10-09T22:44:07.725Z,54.03
2018-10-09T22:46:35.596Z,50.97
2018-10-09T22:49:03.771Z,50.57
2018-10-09T22:51:31.661Z,50.90
2018-10-09T22:53:59.509Z,53.90
2018-10-09T22:56:27.343Z,57.03
2018-10-09T22:58:55.180Z,53.40
2018-10-09T23:01:23.017Z,52.40
2018-10-09T23:03:50.868Z,57.20
2018-10-09T23:06:19.064Z,56.33
2018-10-09T23:08:46.901Z,58.80
2018-10-09T23:11:15.009Z,52.67
2018-10-09T23:13:42.852Z,57.80
2018-10-09T23:16:10.712Z,56.03
2018-10-09T23:18:38.564Z,56.77
2018-10-09T23:21:06.898Z,60.50
2018-10-09T23:23:34.867Z,56.97
2018-10-09T23:26:03.016Z,58.90
2018-10-09T23:28:31.198Z,57.50
2018-10-09T23:30:59.025Z,54.40
2018-10-09T23:33:26.828Z,53.40
2018-10-09T23:35:54.676Z,55.07
2018-10-09T23:38:23.488Z,59.97
2018-10-09T23:40:51.557Z,56.70
2018-10-09T23:43:19.412Z,56.90
2018-10-09T23:45:47.957Z,56.30
2018-10-09T23:48:15.861Z,64.63
2018-10-09T23:50:43.838Z,59.83
2018-10-09T23:53:11.787Z,59.67
2018-10-09T23:55:39.732Z,65.53
2018-10-09T23:58:07.633Z,56.50
